Tamarack, Idaho
Current Conditions -  °F | °C
As of 10:51 AM on Wednesday 28 Jan 2015 (Local Time) from KMYL Reporting Station
Haze Haze  
Wind Chill: 23°   Ceiling: Unl
Heat Index: 30°   Visibility: 3mi
Dew Point: 29°   Wind: 7mph
Humidity: 96%   Direction: 180°S
Pressure: 30.3"   Gusts: NA
Location:  44.7667°N, 116.117°W
Report Text: KMYL 281751Z AUTO 18006KT 3SM BR CLR M01/M02 A3030 RMK AO2 SLP284 T10111017 10017 21039 51015
Loading
Personal Weather Stations






























Interactive Weather Map New forecast layout! Learn more

10-Day Weather Forecast

Advertisements
Track Severe Weather on mobile